Time,TemperatureF,DewpointF,PressureIn,WindDirection,WindDirectionDegrees,WindSpeedMPH,WindSpeedGustMPH,Humidity,HourlyPrecipIn,Conditions,Clouds,dailyrainin,SolarRadiationWatts/m^2,SoftwareType,DateUTC
2013-02-12 00:11:00,9.0,5.0,-100.00,ENE,74,0.0,0.0,85,-99.99,,,0.00,0.000000,,2013-02-12 09:11:00,
2013-02-12 01:11:00,12.0,9.0,-100.00,East,97,0.0,0.0,86,-99.99,,,0.00,0.000000,,2013-02-12 10:11:00,
2013-02-12 02:21:00,14.0,11.0,-100.00,ENE,68,0.0,0.0,87,-99.99,,,0.00,0.000000,,2013-02-12 11:21:00,
2013-02-12 02:31:00,14.0,11.0,-100.00,ENE,68,0.0,0.0,87,-99.99,,,0.00,0.000000,,2013-02-12 11:31:00,
2013-02-12 02:41:00,14.0,11.0,-100.00,ENE,68,0.0,0.0,87,-99.99,,,0.00,0.000000,,2013-02-12 11:41:00,
2013-02-12 02:52:00,14.0,11.0,-100.00,ENE,68,0.0,0.0,87,-99.99,,,0.00,0.000000,,2013-02-12 11:52:00,
2013-02-12 03:11:00,14.0,11.0,-100.00,ESE,121,0.0,0.0,87,-99.99,,,-99.99,,,2013-02-12 12:11:00,
2013-02-12 03:42:00,14.0,11.0,-100.00,ESE,121,0.0,0.0,87,0.00,,,0.00,0.000000,,2013-02-12 12:42:00,
2013-02-12 03:52:00,14.0,11.0,-100.00,ESE,121,0.0,0.0,87,0.00,,,0.00,0.000000,,2013-02-12 12:52:00,
2013-02-12 04:11:00,14.0,11.0,-100.00,South,184,0.0,0.0,88,-99.99,,,-99.99,,,2013-02-12 13:11:00,
2013-02-12 04:22:00,14.0,11.0,-100.00,South,184,0.0,0.0,88,0.00,,,0.00,0.000000,,2013-02-12 13:22:00,
2013-02-12 04:31:00,14.0,11.0,-100.00,South,184,0.0,0.0,88,0.00,,,0.00,0.000000,,2013-02-12 13:31:00,
2013-02-12 04:42:00,14.0,11.0,-100.00,South,184,0.0,0.0,88,0.00,,,0.00,0.000000,,2013-02-12 13:42:00,
2013-02-12 04:51:00,14.0,11.0,-100.00,South,184,0.0,0.0,88,0.00,,,0.00,0.000000,,2013-02-12 13:51:00,
2013-02-12 05:11:00,16.0,13.0,-100.00,ENE,62,0.0,0.0,88,0.00,,,0.00,0.000000,,2013-02-12 14:11:00,
2013-02-12 05:21:00,16.0,13.0,-100.00,ENE,62,0.0,0.0,88,0.00,,,0.00,0.000000,,2013-02-12 14:21:00,
2013-02-12 05:31:00,16.0,13.0,-100.00,ENE,62,0.0,0.0,88,0.00,,,0.00,0.000000,,2013-02-12 14:31:00,
2013-02-12 05:41:00,16.0,13.0,-100.00,ENE,62,0.0,0.0,88,0.00,,,0.00,0.000000,,2013-02-12 14:41:00,
2013-02-12 05:52:00,16.0,13.0,-100.00,ENE,62,0.0,0.0,88,0.00,,,0.00,0.000000,,2013-02-12 14:52:00,
2013-02-12 06:00:00,16.0,13.0,-100.00,ENE,73,0.0,0.0,88,-99.99,,,-99.99,,,2013-02-12 15:00:00,
2013-02-12 06:11:00,16.0,13.0,-100.00,ENE,73,0.0,0.0,88,0.00,,,-99.99,0.000000,,2013-02-12 15:11:00,
2013-02-12 06:21:00,16.0,13.0,-100.00,ENE,73,0.0,0.0,88,0.00,,,-99.99,0.000000,,2013-02-12 15:21:00,
2013-02-12 06:32:00,16.0,13.0,-100.00,ENE,73,0.0,0.0,88,0.00,,,-99.99,0.000000,,2013-02-12 15:32:00,
2013-02-12 06:42:00,16.0,13.0,-100.00,ENE,73,0.0,0.0,88,0.00,,,-99.99,0.000000,,2013-02-12 15:42:00,
2013-02-12 06:52:00,16.0,13.0,-100.00,ENE,73,0.0,0.0,88,0.00,,,-99.99,0.000000,,2013-02-12 15:52:00,
2013-02-12 07:22:00,15.0,12.0,-100.00,ENE,68,0.0,0.0,88,0.00,,,0.00,0.000000,,2013-02-12 16:22:00,
2013-02-12 07:31:00,15.0,12.0,-100.00,ENE,68,0.0,0.0,88,0.00,,,0.00,0.000000,,2013-02-12 16:31:00,
2013-02-12 07:41:00,15.0,12.0,-100.00,ENE,68,0.0,0.0,88,0.00,,,0.00,0.000000,,2013-02-12 16:41:00,
2013-02-12 07:51:00,15.0,12.0,-100.00,ENE,68,0.0,0.0,88,0.00,,,0.00,0.000000,,2013-02-12 16:51:00,
2013-02-12 08:11:00,12.0,9.0,-100.00,ENE,78,0.0,0.0,86,-99.99,,,-99.99,,,2013-02-12 17:11:00,
2013-02-12 10:00:00,16.0,13.0,-100.00,ENE,57,0.0,0.0,88,-99.99,,,-99.99,,,2013-02-12 19:00:00,
2013-02-12 10:11:00,16.0,13.0,-100.00,ENE,57,0.0,0.0,88,-99.99,,,0.00,2.000000,,2013-02-12 19:11:00,
2013-02-12 10:21:00,16.0,13.0,-100.00,ENE,57,0.0,0.0,88,-99.99,,,0.00,2.000000,,2013-02-12 19:21:00,
2013-02-12 10:31:00,16.0,13.0,-100.00,ENE,57,0.0,0.0,88,-99.99,,,0.00,2.000000,,2013-02-12 19:31:00,
2013-02-12 10:41:00,16.0,13.0,-100.00,ENE,57,0.0,0.0,88,-99.99,,,0.00,2.000000,,2013-02-12 19:41:00,
2013-02-12 10:51:00,16.0,13.0,-100.00,ENE,57,0.0,0.0,88,-99.99,,,0.00,2.000000,,2013-02-12 19:51:00,
2013-02-12 11:21:00,20.0,17.0,-100.00,North,3,0.0,0.0,88,0.00,,,0.00,4.000000,,2013-02-12 20:21:00,
2013-02-12 11:31:00,20.0,17.0,-100.00,North,3,0.0,0.0,88,0.00,,,0.00,4.000000,,2013-02-12 20:31:00,
2013-02-12 11:41:00,20.0,17.0,-100.00,North,3,0.0,0.0,88,0.00,,,0.00,4.000000,,2013-02-12 20:41:00,
2013-02-12 11:51:00,20.0,17.0,-100.00,North,3,0.0,0.0,88,0.00,,,0.00,4.000000,,2013-02-12 20:51:00,
2013-02-12 12:21:00,23.0,19.0,-100.00,NNW,344,0.0,1.0,86,0.00,,,0.00,9.000000,,2013-02-12 21:21:00,
2013-02-12 12:31:00,23.0,19.0,-100.00,NNW,344,0.0,1.0,86,0.00,,,0.00,9.000000,,2013-02-12 21:31:00,
2013-02-12 12:41:00,23.0,19.0,-100.00,NNW,344,0.0,1.0,86,0.00,,,0.00,9.000000,,2013-02-12 21:41:00,
2013-02-12 12:51:00,23.0,19.0,-100.00,NNW,344,0.0,1.0,86,0.00,,,0.00,9.000000,,2013-02-12 21:51:00,
2013-02-12 13:21:00,25.0,21.0,-100.00,NNE,20,1.0,5.0,83,0.00,,,0.00,13.000000,,2013-02-12 22:21:00,
2013-02-12 13:31:00,25.0,21.0,-100.00,NNE,20,1.0,5.0,83,0.00,,,0.00,13.000000,,2013-02-12 22:31:00,
2013-02-12 13:41:00,25.0,21.0,-100.00,NNE,20,1.0,5.0,83,0.00,,,0.00,13.000000,,2013-02-12 22:41:00,
2013-02-12 13:51:00,25.0,21.0,-100.00,NNE,20,1.0,5.0,83,0.00,,,0.00,13.000000,,2013-02-12 22:51:00,
2013-02-12 14:11:00,26.0,21.0,-100.00,North,9,1.0,5.0,80,-99.99,,,-99.99,,,2013-02-12 23:11:00,
2013-02-12 14:21:00,26.0,21.0,-100.00,North,9,1.0,6.0,80,0.00,,,0.00,17.000000,,2013-02-12 23:21:00,
2013-02-12 14:31:00,26.0,21.0,-100.00,North,9,1.0,6.0,80,0.00,,,0.00,17.000000,,2013-02-12 23:31:00,
2013-02-12 14:41:00,26.0,21.0,-100.00,North,9,1.0,6.0,80,0.00,,,0.00,17.000000,,2013-02-12 23:41:00,
2013-02-12 14:52:00,26.0,21.0,-100.00,North,9,1.0,6.0,80,0.00,,,0.00,17.000000,,2013-02-12 23:52:00,
2013-02-12 15:21:00,26.0,22.0,-100.00,North,353,1.0,6.0,83,0.00,,,0.00,10.000000,,2013-02-13 00:21:00,
2013-02-12 15:32:00,26.0,22.0,-100.00,North,353,1.0,6.0,83,0.00,,,0.00,10.000000,,2013-02-13 00:32:00,
2013-02-12 15:42:00,26.0,22.0,-100.00,North,353,1.0,6.0,83,0.00,,,0.00,10.000000,,2013-02-13 00:42:00,
2013-02-12 15:51:00,26.0,22.0,-100.00,North,353,1.0,6.0,83,0.00,,,0.00,10.000000,,2013-02-13 00:51:00,
2013-02-12 16:21:00,26.0,22.0,-100.00,NNE,18,1.0,5.0,83,-99.99,,,-99.99,,,2013-02-13 01:21:00,
2013-02-12 16:31:00,26.0,22.0,-100.00,NNE,18,1.0,5.0,83,-99.99,,,-99.99,,,2013-02-13 01:31:00,
2013-02-12 16:42:00,26.0,22.0,-100.00,NNE,18,1.0,6.0,83,0.00,,,0.00,7.000000,,2013-02-13 01:42:00,
2013-02-12 16:51:00,26.0,22.0,-100.00,NNE,18,1.0,6.0,83,0.00,,,0.00,7.000000,,2013-02-13 01:51:00,
2013-02-12 17:11:00,25.0,21.0,-100.00,North,8,1.0,3.0,84,-99.99,,,-99.99,,,2013-02-13 02:11:00,
2013-02-12 17:21:00,25.0,21.0,-100.00,North,8,1.0,3.0,84,-99.99,,,-99.99,,,2013-02-13 02:21:00,
2013-02-12 17:31:00,25.0,21.0,-100.00,North,8,1.0,3.0,84,-99.99,,,-99.99,,,2013-02-13 02:31:00,
2013-02-12 17:41:00,25.0,21.0,-100.00,North,8,1.0,4.0,84,0.00,,,0.00,4.000000,,2013-02-13 02:41:00,
2013-02-12 17:51:00,25.0,21.0,-100.00,North,8,1.0,4.0,84,0.00,,,0.00,4.000000,,2013-02-13 02:51:00,
2013-02-12 18:11:00,24.0,21.0,-100.00,WSW,251,1.0,4.0,89,-99.99,,,-99.99,,,2013-02-13 03:11:00,
2013-02-12 18:21:00,24.0,21.0,-100.00,WSW,251,1.0,5.0,89,0.00,,,0.00,1.000000,,2013-02-13 03:21:00,
2013-02-12 18:32:00,24.0,21.0,-100.00,WSW,251,1.0,5.0,89,0.00,,,0.00,1.000000,,2013-02-13 03:32:00,
2013-02-12 18:41:00,24.0,21.0,-100.00,WSW,251,1.0,5.0,89,0.00,,,0.00,1.000000,,2013-02-13 03:41:00,
2013-02-12 18:51:00,24.0,21.0,-100.00,WSW,251,1.0,5.0,89,0.00,,,0.00,1.000000,,2013-02-13 03:51:00,
2013-02-12 19:11:00,24.0,22.0,-100.00,WNW,286,1.0,2.0,91,0.00,,,0.00,0.000000,,2013-02-13 04:11:00,
2013-02-12 19:21:00,24.0,22.0,-100.00,WNW,286,1.0,2.0,91,0.00,,,0.00,0.000000,,2013-02-13 04:21:00,
2013-02-12 19:31:00,24.0,22.0,-100.00,WNW,286,1.0,2.0,91,0.00,,,0.00,0.000000,,2013-02-13 04:31:00,
2013-02-12 19:41:00,24.0,22.0,-100.00,WNW,286,1.0,2.0,91,0.00,,,0.00,0.000000,,2013-02-13 04:41:00,
2013-02-12 19:51:00,24.0,22.0,-100.00,WNW,286,1.0,2.0,91,0.00,,,0.00,0.000000,,2013-02-13 04:51:00,
2013-02-12 20:11:00,23.0,21.0,-100.00,NE,40,0.0,3.0,92,-99.99,,,-99.99,,,2013-02-13 05:11:00,
2013-02-12 20:22:00,23.0,21.0,-100.00,NE,40,0.0,3.0,92,0.00,,,0.00,0.000000,,2013-02-13 05:22:00,
2013-02-12 20:31:00,23.0,21.0,-100.00,NE,40,0.0,3.0,92,0.00,,,0.00,0.000000,,2013-02-13 05:31:00,
2013-02-12 20:41:00,23.0,21.0,-100.00,NE,40,0.0,3.0,92,0.00,,,0.00,0.000000,,2013-02-13 05:41:00,
2013-02-12 20:52:00,23.0,21.0,-100.00,NE,40,0.0,3.0,92,0.00,,,0.00,0.000000,,2013-02-13 05:52:00,
2013-02-12 21:11:00,22.0,20.0,-100.00,NNE,32,0.0,0.0,92,0.00,,,0.00,0.000000,,2013-02-13 06:11:00,
2013-02-12 21:21:00,22.0,20.0,-100.00,NNE,32,0.0,0.0,92,0.00,,,0.00,0.000000,,2013-02-13 06:21:00,
2013-02-12 21:31:00,22.0,20.0,-100.00,NNE,32,0.0,0.0,92,0.00,,,0.00,0.000000,,2013-02-13 06:31:00,
2013-02-12 21:41:00,22.0,20.0,-100.00,NNE,32,0.0,0.0,92,0.00,,,0.00,0.000000,,2013-02-13 06:41:00,
2013-02-12 21:51:00,22.0,20.0,-100.00,NNE,32,0.0,0.0,92,0.00,,,0.00,0.000000,,2013-02-13 06:51:00,
2013-02-12 22:11:00,22.0,20.0,-100.00,NE,40,0.0,4.0,92,-99.99,,,-99.99,,,2013-02-13 07:11:00,
2013-02-12 22:21:00,22.0,20.0,-100.00,NE,40,0.0,5.0,92,0.00,,,0.00,0.000000,,2013-02-13 07:21:00,
2013-02-12 22:31:00,22.0,20.0,-100.00,NE,40,0.0,5.0,92,0.00,,,0.00,0.000000,,2013-02-13 07:31:00,
2013-02-12 22:41:00,22.0,20.0,-100.00,NE,40,0.0,5.0,92,0.00,,,0.00,0.000000,,2013-02-13 07:41:00,
2013-02-12 22:51:00,22.0,20.0,-100.00,NE,40,0.0,5.0,92,0.00,,,0.00,0.000000,,2013-02-13 07:51:00,
2013-02-12 23:11:00,20.0,18.0,-100.00,East,96,0.0,1.0,91,-99.99,,,-99.99,,,2013-02-13 08:11:00,
2013-02-12 23:21:00,20.0,18.0,-100.00,East,96,0.0,1.0,91,0.00,,,0.00,0.000000,,2013-02-13 08:21:00,
2013-02-12 23:31:00,20.0,18.0,-100.00,East,96,0.0,1.0,91,0.00,,,0.00,0.000000,,2013-02-13 08:31:00,
2013-02-12 23:42:00,20.0,18.0,-100.00,East,96,0.0,1.0,91,0.00,,,0.00,0.000000,,2013-02-13 08:42:00,
2013-02-12 23:52:00,20.0,18.0,-100.00,East,96,0.0,1.0,91,0.00,,,0.00,0.000000,,2013-02-13 08:52:00,